sensor_id;sensor_type;location;lat;lon;timestamp;P1;durP1;ratioP1;P2;durP2;ratioP2
61569;SDS011;47462;59.172;17.196;2022-09-12T00:01:12;4.03;;;1.75;;
61569;SDS011;47462;59.172;17.196;2022-09-12T00:03:42;2.63;;;1.77;;
61569;SDS011;47462;59.172;17.196;2022-09-12T00:06:08;3.22;;;1.92;;
61569;SDS011;47462;59.172;17.196;2022-09-12T00:08:35;3.95;;;2.05;;
61569;SDS011;47462;59.172;17.196;2022-09-12T00:11:05;3.38;;;1.70;;
61569;SDS011;47462;59.172;17.196;2022-09-12T00:13:32;2.90;;;2.00;;
61569;SDS011;47462;59.172;17.196;2022-09-12T00:15:58;6.18;;;2.08;;
61569;SDS011;47462;59.172;17.196;2022-09-12T00:18:23;3.83;;;1.80;;
61569;SDS011;47462;59.172;17.196;2022-09-12T00:20:48;3.10;;;1.80;;
61569;SDS011;47462;59.172;17.196;2022-09-12T00:23:14;3.93;;;2.20;;
61569;SDS011;47462;59.172;17.196;2022-09-12T00:25:43;4.88;;;1.90;;
61569;SDS011;47462;59.172;17.196;2022-09-12T00:28:10;3.33;;;1.60;;
61569;SDS011;47462;59.172;17.196;2022-09-12T00:30:40;3.45;;;1.70;;
61569;SDS011;47462;59.172;17.196;2022-09-12T00:33:07;2.97;;;1.90;;
61569;SDS011;47462;59.172;17.196;2022-09-12T00:35:33;1.95;;;1.80;;
61569;SDS011;47462;59.172;17.196;2022-09-12T00:37:59;5.60;;;1.63;;
61569;SDS011;47462;59.172;17.196;2022-09-12T00:40:24;5.80;;;1.70;;
61569;SDS011;47462;59.172;17.196;2022-09-12T00:42:51;3.65;;;1.90;;
61569;SDS011;47462;59.172;17.196;2022-09-12T00:45:19;2.30;;;1.70;;
61569;SDS011;47462;59.172;17.196;2022-09-12T00:47:51;3.25;;;1.92;;
61569;SDS011;47462;59.172;17.196;2022-09-12T00:52:49;7.80;;;1.65;;
61569;SDS011;47462;59.172;17.196;2022-09-12T00:55:20;2.28;;;1.60;;
61569;SDS011;47462;59.172;17.196;2022-09-12T00:57:50;4.35;;;2.10;;
61569;SDS011;47462;59.172;17.196;2022-09-12T01:00:20;4.47;;;1.50;;
61569;SDS011;47462;59.172;17.196;2022-09-12T01:03:29;3.28;;;2.03;;
61569;SDS011;47462;59.172;17.196;2022-09-12T01:05:40;4.43;;;2.10;;
61569;SDS011;47462;59.172;17.196;2022-09-12T01:08:11;1.55;;;1.33;;
61569;SDS011;47462;59.172;17.196;2022-09-12T01:10:36;4.83;;;1.60;;
61569;SDS011;47462;59.172;17.196;2022-09-12T01:13:04;2.50;;;1.90;;
61569;SDS011;47462;59.172;17.196;2022-09-12T01:15:31;2.22;;;1.63;;
61569;SDS011;47462;59.172;17.196;2022-09-12T01:28:49;2.45;;;1.55;;
61569;SDS011;47462;59.172;17.196;2022-09-12T01:31:40;2.60;;;1.90;;
61569;SDS011;47462;59.172;17.196;2022-09-12T01:37:19;3.92;;;1.70;;
61569;SDS011;47462;59.172;17.196;2022-09-12T01:39:58;3.10;;;1.80;;
61569;SDS011;47462;59.172;17.196;2022-09-12T01:42:39;2.70;;;2.10;;
61569;SDS011;47462;59.172;17.196;2022-09-12T01:45:11;5.95;;;1.80;;
61569;SDS011;47462;59.172;17.196;2022-09-12T01:48:32;3.03;;;1.88;;
61569;SDS011;47462;59.172;17.196;2022-09-12T01:50:51;4.00;;;1.77;;
61569;SDS011;47462;59.172;17.196;2022-09-12T01:53:26;2.00;;;1.75;;
61569;SDS011;47462;59.172;17.196;2022-09-12T01:56:01;4.45;;;1.85;;
61569;SDS011;47462;59.172;17.196;2022-09-12T01:58:40;3.63;;;1.77;;
61569;SDS011;47462;59.172;17.196;2022-09-12T02:04:26;1.75;;;1.58;;
61569;SDS011;47462;59.172;17.196;2022-09-12T02:06:39;2.78;;;1.70;;
61569;SDS011;47462;59.172;17.196;2022-09-12T02:09:26;4.97;;;2.03;;
61569;SDS011;47462;59.172;17.196;2022-09-12T02:11:58;3.00;;;1.90;;
61569;SDS011;47462;59.172;17.196;2022-09-12T02:14:33;2.65;;;1.55;;
61569;SDS011;47462;59.172;17.196;2022-09-12T02:17:05;3.78;;;1.90;;
61569;SDS011;47462;59.172;17.196;2022-09-12T02:19:36;2.08;;;1.60;;
61569;SDS011;47462;59.172;17.196;2022-09-12T02:22:06;2.10;;;1.52;;
61569;SDS011;47462;59.172;17.196;2022-09-12T02:24:38;1.92;;;1.38;;
61569;SDS011;47462;59.172;17.196;2022-09-12T02:27:08;2.28;;;2.08;;
61569;SDS011;47462;59.172;17.196;2022-09-12T02:29:38;4.25;;;1.90;;
61569;SDS011;47462;59.172;17.196;2022-09-12T02:32:05;2.97;;;1.70;;
61569;SDS011;47462;59.172;17.196;2022-09-12T02:34:40;2.78;;;1.60;;
61569;SDS011;47462;59.172;17.196;2022-09-12T02:39:56;2.85;;;1.60;;
61569;SDS011;47462;59.172;17.196;2022-09-12T02:42:22;3.20;;;1.80;;
61569;SDS011;47462;59.172;17.196;2022-09-12T02:44:49;1.80;;;1.50;;
61569;SDS011;47462;59.172;17.196;2022-09-12T02:49:53;2.33;;;1.73;;
61569;SDS011;47462;59.172;17.196;2022-09-12T02:52:19;3.60;;;1.77;;
61569;SDS011;47462;59.172;17.196;2022-09-12T02:54:45;2.00;;;1.63;;
61569;SDS011;47462;59.172;17.196;2022-09-12T02:57:15;2.58;;;1.73;;
61569;SDS011;47462;59.172;17.196;2022-09-12T02:59:42;3.38;;;1.65;;
61569;SDS011;47462;59.172;17.196;2022-09-12T03:02:19;3.05;;;1.30;;
61569;SDS011;47462;59.172;17.196;2022-09-12T03:13:55;4.63;;;1.65;;
61569;SDS011;47462;59.172;17.196;2022-09-12T03:16:23;3.38;;;1.55;;
61569;SDS011;47462;59.172;17.196;2022-09-12T03:19:13;1.83;;;1.48;;
61569;SDS011;47462;59.172;17.196;2022-09-12T03:28:14;2.45;;;1.58;;
61569;SDS011;47462;59.172;17.196;2022-09-12T03:30:52;5.70;;;1.55;;
61569;SDS011;47462;59.172;17.196;2022-09-12T03:33:20;2.63;;;1.60;;
61569;SDS011;47462;59.172;17.196;2022-09-12T03:35:47;2.22;;;1.40;;
61569;SDS011;47462;59.172;17.196;2022-09-12T03:40:39;2.70;;;1.85;;
61569;SDS011;47462;59.172;17.196;2022-09-12T03:43:05;3.75;;;2.15;;
61569;SDS011;47462;59.172;17.196;2022-09-12T03:45:32;2.72;;;1.40;;
61569;SDS011;47462;59.172;17.196;2022-09-12T03:47:57;3.40;;;1.50;;
61569;SDS011;47462;59.172;17.196;2022-09-12T03:50:23;3.65;;;1.50;;
61569;SDS011;47462;59.172;17.196;2022-09-12T03:52:48;3.88;;;1.65;;
61569;SDS011;47462;59.172;17.196;2022-09-12T03:55:14;2.33;;;1.70;;
61569;SDS011;47462;59.172;17.196;2022-09-12T03:57:40;1.77;;;1.50;;
61569;SDS011;47462;59.172;17.196;2022-09-12T04:00:05;4.82;;;1.50;;
61569;SDS011;47462;59.172;17.196;2022-09-12T04:02:32;3.45;;;1.67;;
61569;SDS011;47462;59.172;17.196;2022-09-12T04:04:59;2.95;;;1.88;;
61569;SDS011;47462;59.172;17.196;2022-09-12T04:07:24;2.22;;;1.30;;
61569;SDS011;47462;59.172;17.196;2022-09-12T04:09:49;3.40;;;1.73;;
61569;SDS011;47462;59.172;17.196;2022-09-12T04:12:15;2.53;;;1.50;;
61569;SDS011;47462;59.172;17.196;2022-09-12T04:14:40;1.77;;;1.67;;
61569;SDS011;47462;59.172;17.196;2022-09-12T04:17:06;2.05;;;1.48;;
61569;SDS011;47462;59.172;17.196;2022-09-12T04:19:31;9.25;;;2.00;;
61569;SDS011;47462;59.172;17.196;2022-09-12T04:21:57;2.80;;;1.50;;
61569;SDS011;47462;59.172;17.196;2022-09-12T04:24:22;3.65;;;1.80;;
61569;SDS011;47462;59.172;17.196;2022-09-12T04:26:48;3.63;;;1.80;;
61569;SDS011;47462;59.172;17.196;2022-09-12T04:29:13;4.15;;;2.08;;
61569;SDS011;47462;59.172;17.196;2022-09-12T04:31:39;5.65;;;1.90;;
61569;SDS011;47462;59.172;17.196;2022-09-12T04:34:04;6.65;;;2.20;;
61569;SDS011;47462;59.172;17.196;2022-09-12T04:36:30;3.33;;;1.70;;
61569;SDS011;47462;59.172;17.196;2022-09-12T04:38:58;8.50;;;2.40;;
61569;SDS011;47462;59.172;17.196;2022-09-12T04:41:26;10.88;;;2.38;;
61569;SDS011;47462;59.172;17.196;2022-09-12T04:43:55;23.25;;;3.72;;
61569;SDS011;47462;59.172;17.196;2022-09-12T04:46:23;5.15;;;2.50;;
61569;SDS011;47462;59.172;17.196;2022-09-12T04:48:49;8.93;;;2.80;;
61569;SDS011;47462;59.172;17.196;2022-09-12T04:51:19;10.70;;;2.42;;
61569;SDS011;47462;59.172;17.196;2022-09-12T04:53:48;24.02;;;3.25;;
61569;SDS011;47462;59.172;17.196;2022-09-12T04:56:16;8.25;;;2.83;;
61569;SDS011;47462;59.172;17.196;2022-09-12T04:58:42;29.05;;;3.25;;
61569;SDS011;47462;59.172;17.196;2022-09-12T05:01:15;21.40;;;3.43;;
61569;SDS011;47462;59.172;17.196;2022-09-12T05:03:42;25.40;;;3.25;;
61569;SDS011;47462;59.172;17.196;2022-09-12T05:06:09;22.83;;;3.13;;
61569;SDS011;47462;59.172;17.196;2022-09-12T05:08:39;17.80;;;3.35;;
61569;SDS011;47462;59.172;17.196;2022-09-12T05:11:06;12.15;;;2.70;;
61569;SDS011;47462;59.172;17.196;2022-09-12T05:13:35;50.83;;;3.38;;
61569;SDS011;47462;59.172;17.196;2022-09-12T05:16:02;61.05;;;3.47;;
61569;SDS011;47462;59.172;17.196;2022-09-12T05:18:32;44.58;;;3.42;;
61569;SDS011;47462;59.172;17.196;2022-09-12T05:20:59;14.48;;;2.50;;
61569;SDS011;47462;59.172;17.196;2022-09-12T05:23:27;25.75;;;2.75;;
61569;SDS011;47462;59.172;17.196;2022-09-12T05:25:54;10.40;;;2.20;;
61569;SDS011;47462;59.172;17.196;2022-09-12T05:28:22;21.30;;;2.50;;
61569;SDS011;47462;59.172;17.196;2022-09-12T05:30:58;11.57;;;1.95;;
61569;SDS011;47462;59.172;17.196;2022-09-12T05:33:24;32.63;;;2.67;;
61569;SDS011;47462;59.172;17.196;2022-09-12T05:35:50;17.20;;;3.10;;
61569;SDS011;47462;59.172;17.196;2022-09-12T05:38:16;10.73;;;2.38;;
61569;SDS011;47462;59.172;17.196;2022-09-12T05:40:42;165.63;;;5.97;;
61569;SDS011;47462;59.172;17.196;2022-09-12T05:43:07;241.17;;;7.97;;
61569;SDS011;47462;59.172;17.196;2022-09-12T05:45:33;230.97;;;7.50;;
61569;SDS011;47462;59.172;17.196;2022-09-12T05:47:58;21.60;;;2.78;;
61569;SDS011;47462;59.172;17.196;2022-09-12T05:50:24;4.10;;;2.03;;
61569;SDS011;47462;59.172;17.196;2022-09-12T05:52:49;4.43;;;2.43;;
61569;SDS011;47462;59.172;17.196;2022-09-12T05:55:15;12.83;;;2.30;;
61569;SDS011;47462;59.172;17.196;2022-09-12T05:57:42;29.30;;;2.60;;
61569;SDS011;47462;59.172;17.196;2022-09-12T06:00:10;24.83;;;2.17;;
61569;SDS011;47462;59.172;17.196;2022-09-12T06:02:36;13.20;;;2.25;;
61569;SDS011;47462;59.172;17.196;2022-09-12T06:05:02;21.83;;;2.07;;
61569;SDS011;47462;59.172;17.196;2022-09-12T06:07:27;19.17;;;2.30;;
61569;SDS011;47462;59.172;17.196;2022-09-12T06:09:53;7.65;;;2.15;;
61569;SDS011;47462;59.172;17.196;2022-09-12T06:12:18;28.13;;;2.10;;
61569;SDS011;47462;59.172;17.196;2022-09-12T06:14:44;144.67;;;5.67;;
61569;SDS011;47462;59.172;17.196;2022-09-12T06:19:35;35.22;;;2.88;;
61569;SDS011;47462;59.172;17.196;2022-09-12T06:22:01;97.80;;;3.92;;
61569;SDS011;47462;59.172;17.196;2022-09-12T06:24:27;259.80;;;8.32;;
61569;SDS011;47462;59.172;17.196;2022-09-12T06:26:52;37.22;;;2.70;;
61569;SDS011;47462;59.172;17.196;2022-09-12T06:29:18;156.02;;;6.78;;
61569;SDS011;47462;59.172;17.196;2022-09-12T06:31:43;7.03;;;1.80;;
61569;SDS011;47462;59.172;17.196;2022-09-12T06:34:11;44.97;;;2.67;;
61569;SDS011;47462;59.172;17.196;2022-09-12T06:36:44;22.48;;;2.20;;
61569;SDS011;47462;59.172;17.196;2022-09-12T06:39:12;1.80;;;1.60;;
61569;SDS011;47462;59.172;17.196;2022-09-12T06:41:42;3.63;;;1.83;;
61569;SDS011;47462;59.172;17.196;2022-09-12T06:44:09;3.72;;;1.90;;
61569;SDS011;47462;59.172;17.196;2022-09-12T06:46:37;1.60;;;1.50;;
61569;SDS011;47462;59.172;17.196;2022-09-12T06:49:03;6.80;;;1.60;;
61569;SDS011;47462;59.172;17.196;2022-09-12T06:51:29;1.52;;;1.38;;
61569;SDS011;47462;59.172;17.196;2022-09-12T06:53:55;1.40;;;1.30;;
61569;SDS011;47462;59.172;17.196;2022-09-12T06:56:22;3.40;;;1.35;;
61569;SDS011;47462;59.172;17.196;2022-09-12T06:58:53;1.90;;;1.50;;
61569;SDS011;47462;59.172;17.196;2022-09-12T07:01:24;1.55;;;1.20;;
61569;SDS011;47462;59.172;17.196;2022-09-12T07:03:54;1.35;;;1.15;;
61569;SDS011;47462;59.172;17.196;2022-09-12T07:06:23;1.70;;;1.40;;
61569;SDS011;47462;59.172;17.196;2022-09-12T07:08:53;2.05;;;1.25;;
61569;SDS011;47462;59.172;17.196;2022-09-12T07:11:20;4.93;;;1.67;;
61569;SDS011;47462;59.172;17.196;2022-09-12T07:13:48;1.23;;;1.13;;
61569;SDS011;47462;59.172;17.196;2022-09-12T07:16:16;1.17;;;1.08;;
61569;SDS011;47462;59.172;17.196;2022-09-12T07:18:42;2.78;;;1.52;;
61569;SDS011;47462;59.172;17.196;2022-09-12T07:21:11;1.50;;;1.30;;
61569;SDS011;47462;59.172;17.196;2022-09-12T07:23:37;1.45;;;1.08;;
61569;SDS011;47462;59.172;17.196;2022-09-12T07:26:04;1.23;;;1.13;;
61569;SDS011;47462;59.172;17.196;2022-09-12T07:28:31;1.10;;;1.00;;
61569;SDS011;47462;59.172;17.196;2022-09-12T07:30:58;2.10;;;1.00;;
61569;SDS011;47462;59.172;17.196;2022-09-12T07:33:39;2.03;;;1.27;;
61569;SDS011;47462;59.172;17.196;2022-09-12T07:36:15;2.00;;;1.10;;
61569;SDS011;47462;59.172;17.196;2022-09-12T07:38:42;5.03;;;1.20;;
61569;SDS011;47462;59.172;17.196;2022-09-12T07:41:09;1.55;;;1.40;;
61569;SDS011;47462;59.172;17.196;2022-09-12T07:43:45;2.25;;;1.30;;
61569;SDS011;47462;59.172;17.196;2022-09-12T07:46:11;3.10;;;1.20;;
61569;SDS011;47462;59.172;17.196;2022-09-12T07:48:37;1.20;;;1.10;;
61569;SDS011;47462;59.172;17.196;2022-09-12T07:51:04;1.17;;;1.08;;
61569;SDS011;47462;59.172;17.196;2022-09-12T07:53:33;3.50;;;1.48;;
61569;SDS011;47462;59.172;17.196;2022-09-12T07:56:01;3.05;;;1.10;;
61569;SDS011;47462;59.172;17.196;2022-09-12T07:58:28;1.70;;;1.27;;
61569;SDS011;47462;59.172;17.196;2022-09-12T08:01:00;3.25;;;1.50;;
61569;SDS011;47462;59.172;17.196;2022-09-12T08:03:26;1.80;;;1.30;;
61569;SDS011;47462;59.172;17.196;2022-09-12T08:05:52;1.83;;;1.27;;
61569;SDS011;47462;59.172;17.196;2022-09-12T08:10:46;3.53;;;1.20;;
61569;SDS011;47462;59.172;17.196;2022-09-12T08:13:11;2.38;;;1.40;;
61569;SDS011;47462;59.172;17.196;2022-09-12T08:15:36;2.97;;;1.27;;
61569;SDS011;47462;59.172;17.196;2022-09-12T08:20:27;4.35;;;1.42;;
61569;SDS011;47462;59.172;17.196;2022-09-12T08:25:18;5.22;;;1.45;;
61569;SDS011;47462;59.172;17.196;2022-09-12T08:30:10;3.50;;;1.80;;
61569;SDS011;47462;59.172;17.196;2022-09-12T08:32:36;3.72;;;1.67;;
61569;SDS011;47462;59.172;17.196;2022-09-12T08:37:30;3.50;;;1.55;;
61569;SDS011;47462;59.172;17.196;2022-09-12T08:39:56;1.95;;;1.30;;
61569;SDS011;47462;59.172;17.196;2022-09-12T08:47:38;1.77;;;1.42;;
61569;SDS011;47462;59.172;17.196;2022-09-12T08:52:40;2.47;;;1.95;;
61569;SDS011;47462;59.172;17.196;2022-09-12T08:58:14;2.83;;;1.67;;
61569;SDS011;47462;59.172;17.196;2022-09-12T09:09:15;2.65;;;1.42;;
61569;SDS011;47462;59.172;17.196;2022-09-12T09:17:42;6.25;;;1.58;;
61569;SDS011;47462;59.172;17.196;2022-09-12T09:25:37;5.38;;;1.38;;
61569;SDS011;47462;59.172;17.196;2022-09-12T09:28:06;5.28;;;1.67;;
61569;SDS011;47462;59.172;17.196;2022-09-12T09:30:38;2.72;;;1.38;;
61569;SDS011;47462;59.172;17.196;2022-09-12T09:33:09;1.83;;;1.40;;
61569;SDS011;47462;59.172;17.196;2022-09-12T09:40:56;2.92;;;1.55;;
61569;SDS011;47462;59.172;17.196;2022-09-12T09:43:33;2.47;;;1.50;;
61569;SDS011;47462;59.172;17.196;2022-09-12T09:46:01;4.03;;;1.35;;
61569;SDS011;47462;59.172;17.196;2022-09-12T09:48:28;8.27;;;1.52;;
61569;SDS011;47462;59.172;17.196;2022-09-12T09:50:57;4.43;;;1.45;;
61569;SDS011;47462;59.172;17.196;2022-09-12T09:53:26;3.20;;;1.73;;
61569;SDS011;47462;59.172;17.196;2022-09-12T09:55:58;4.95;;;1.70;;
61569;SDS011;47462;59.172;17.196;2022-09-12T09:58:30;3.75;;;1.40;;
61569;SDS011;47462;59.172;17.196;2022-09-12T10:01:03;3.58;;;1.40;;
61569;SDS011;47462;59.172;17.196;2022-09-12T10:03:32;3.67;;;1.48;;
61569;SDS011;47462;59.172;17.196;2022-09-12T10:06:20;4.82;;;1.63;;
61569;SDS011;47462;59.172;17.196;2022-09-12T10:09:03;5.80;;;1.80;;
61569;SDS011;47462;59.172;17.196;2022-09-12T10:11:31;3.28;;;1.10;;
61569;SDS011;47462;59.172;17.196;2022-09-12T10:13:56;2.13;;;1.33;;
61569;SDS011;47462;59.172;17.196;2022-09-12T10:18:55;6.28;;;1.50;;
61569;SDS011;47462;59.172;17.196;2022-09-12T10:21:38;4.82;;;1.67;;
61569;SDS011;47462;59.172;17.196;2022-09-12T10:24:28;3.72;;;1.60;;
61569;SDS011;47462;59.172;17.196;2022-09-12T10:27:05;3.38;;;1.75;;
61569;SDS011;47462;59.172;17.196;2022-09-12T10:32:12;1.63;;;1.02;;
61569;SDS011;47462;59.172;17.196;2022-09-12T10:34:47;2.05;;;1.33;;
61569;SDS011;47462;59.172;17.196;2022-09-12T10:37:25;1.77;;;1.00;;
61569;SDS011;47462;59.172;17.196;2022-09-12T10:39:56;4.65;;;1.30;;
61569;SDS011;47462;59.172;17.196;2022-09-12T10:42:46;2.10;;;1.08;;
61569;SDS011;47462;59.172;17.196;2022-09-12T10:45:17;4.32;;;1.00;;
61569;SDS011;47462;59.172;17.196;2022-09-12T10:47:49;5.38;;;1.70;;
61569;SDS011;47462;59.172;17.196;2022-09-12T10:50:25;4.28;;;1.05;;
61569;SDS011;47462;59.172;17.196;2022-09-12T10:52:51;5.45;;;1.30;;
61569;SDS011;47462;59.172;17.196;2022-09-12T10:55:19;6.13;;;1.30;;
61569;SDS011;47462;59.172;17.196;2022-09-12T10:57:57;1.83;;;1.17;;
61569;SDS011;47462;59.172;17.196;2022-09-12T11:00:31;3.40;;;1.40;;
61569;SDS011;47462;59.172;17.196;2022-09-12T11:03:22;2.17;;;1.33;;
61569;SDS011;47462;59.172;17.196;2022-09-12T11:05:56;9.68;;;1.30;;
61569;SDS011;47462;59.172;17.196;2022-09-12T11:11:27;4.55;;;1.25;;
61569;SDS011;47462;59.172;17.196;2022-09-12T11:19:27;2.35;;;1.08;;
61569;SDS011;47462;59.172;17.196;2022-09-12T11:22:14;4.22;;;1.08;;
61569;SDS011;47462;59.172;17.196;2022-09-12T11:27:59;3.13;;;1.40;;
61569;SDS011;47462;59.172;17.196;2022-09-12T11:30:30;2.78;;;1.33;;
61569;SDS011;47462;59.172;17.196;2022-09-12T11:33:20;3.75;;;1.45;;
61569;SDS011;47462;59.172;17.196;2022-09-12T11:35:57;3.10;;;0.95;;
61569;SDS011;47462;59.172;17.196;2022-09-12T11:38:46;1.45;;;0.90;;
61569;SDS011;47462;59.172;17.196;2022-09-12T11:41:18;2.88;;;1.15;;
61569;SDS011;47462;59.172;17.196;2022-09-12T11:46:39;2.60;;;0.90;;
61569;SDS011;47462;59.172;17.196;2022-09-12T11:51:53;3.33;;;0.90;;
61569;SDS011;47462;59.172;17.196;2022-09-12T11:57:13;2.72;;;0.93;;
61569;SDS011;47462;59.172;17.196;2022-09-12T11:59:49;3.15;;;1.00;;
61569;SDS011;47462;59.172;17.196;2022-09-12T12:02:28;4.85;;;1.05;;
61569;SDS011;47462;59.172;17.196;2022-09-12T12:05:01;3.35;;;0.98;;
61569;SDS011;47462;59.172;17.196;2022-09-12T12:07:40;1.55;;;0.70;;
61569;SDS011;47462;59.172;17.196;2022-09-12T12:10:20;2.58;;;0.90;;
61569;SDS011;47462;59.172;17.196;2022-09-12T12:12:49;3.05;;;1.05;;
61569;SDS011;47462;59.172;17.196;2022-09-12T12:15:16;5.63;;;1.10;;
61569;SDS011;47462;59.172;17.196;2022-09-12T12:17:42;0.98;;;0.70;;
61569;SDS011;47462;59.172;17.196;2022-09-12T12:20:12;1.70;;;0.80;;
61569;SDS011;47462;59.172;17.196;2022-09-12T12:22:51;2.72;;;1.48;;
61569;SDS011;47462;59.172;17.196;2022-09-12T12:27:54;2.15;;;1.02;;
61569;SDS011;47462;59.172;17.196;2022-09-12T12:33:01;3.30;;;1.00;;
61569;SDS011;47462;59.172;17.196;2022-09-12T12:35:36;1.50;;;1.05;;
61569;SDS011;47462;59.172;17.196;2022-09-12T12:38:24;5.22;;;0.90;;
61569;SDS011;47462;59.172;17.196;2022-09-12T12:40:51;2.03;;;0.80;;
61569;SDS011;47462;59.172;17.196;2022-09-12T12:43:27;3.22;;;1.15;;
61569;SDS011;47462;59.172;17.196;2022-09-12T12:46:03;3.13;;;1.23;;
61569;SDS011;47462;59.172;17.196;2022-09-12T12:48:30;2.28;;;1.13;;
61569;SDS011;47462;59.172;17.196;2022-09-12T12:53:47;1.17;;;0.65;;
61569;SDS011;47462;59.172;17.196;2022-09-12T12:56:25;4.10;;;1.00;;
61569;SDS011;47462;59.172;17.196;2022-09-12T12:58:57;2.30;;;1.30;;
61569;SDS011;47462;59.172;17.196;2022-09-12T13:01:25;1.75;;;0.85;;
61569;SDS011;47462;59.172;17.196;2022-09-12T13:03:57;1.38;;;0.85;;
61569;SDS011;47462;59.172;17.196;2022-09-12T13:06:39;1.92;;;1.13;;
61569;SDS011;47462;59.172;17.196;2022-09-12T13:09:07;2.63;;;1.08;;
61569;SDS011;47462;59.172;17.196;2022-09-12T13:11:40;4.45;;;1.20;;
61569;SDS011;47462;59.172;17.196;2022-09-12T13:14:06;2.42;;;1.02;;
61569;SDS011;47462;59.172;17.196;2022-09-12T13:17:30;1.85;;;1.10;;
61569;SDS011;47462;59.172;17.196;2022-09-12T13:20:21;3.40;;;0.90;;
61569;SDS011;47462;59.172;17.196;2022-09-12T13:22:52;1.75;;;1.00;;
61569;SDS011;47462;59.172;17.196;2022-09-12T13:25:20;4.40;;;0.95;;
61569;SDS011;47462;59.172;17.196;2022-09-12T13:30:45;0.95;;;0.80;;
61569;SDS011;47462;59.172;17.196;2022-09-12T13:41:33;1.23;;;0.63;;
61569;SDS011;47462;59.172;17.196;2022-09-12T13:44:13;3.80;;;1.45;;
61569;SDS011;47462;59.172;17.196;2022-09-12T13:46:42;3.45;;;0.90;;
61569;SDS011;47462;59.172;17.196;2022-09-12T13:52:00;1.75;;;0.82;;
61569;SDS011;47462;59.172;17.196;2022-09-12T13:54:29;1.45;;;0.82;;
61569;SDS011;47462;59.172;17.196;2022-09-12T13:56:55;3.17;;;1.45;;
61569;SDS011;47462;59.172;17.196;2022-09-12T13:59:20;2.05;;;1.13;;
61569;SDS011;47462;59.172;17.196;2022-09-12T14:01:46;3.58;;;1.00;;
61569;SDS011;47462;59.172;17.196;2022-09-12T14:07:20;1.00;;;0.90;;
61569;SDS011;47462;59.172;17.196;2022-09-12T14:09:56;2.50;;;1.25;;
61569;SDS011;47462;59.172;17.196;2022-09-12T14:14:49;1.98;;;0.90;;
61569;SDS011;47462;59.172;17.196;2022-09-12T14:17:17;4.90;;;1.20;;
61569;SDS011;47462;59.172;17.196;2022-09-12T14:19:48;3.95;;;0.90;;
61569;SDS011;47462;59.172;17.196;2022-09-12T14:22:14;3.10;;;1.17;;
61569;SDS011;47462;59.172;17.196;2022-09-12T14:24:45;4.47;;;0.95;;
61569;SDS011;47462;59.172;17.196;2022-09-12T14:27:19;1.77;;;1.10;;
61569;SDS011;47462;59.172;17.196;2022-09-12T14:29:50;3.95;;;1.42;;
61569;SDS011;47462;59.172;17.196;2022-09-12T14:32:24;2.13;;;1.00;;
61569;SDS011;47462;59.172;17.196;2022-09-12T14:35:03;2.38;;;0.90;;
61569;SDS011;47462;59.172;17.196;2022-09-12T14:37:49;1.63;;;1.02;;
61569;SDS011;47462;59.172;17.196;2022-09-12T14:40:19;1.75;;;1.05;;
61569;SDS011;47462;59.172;17.196;2022-09-12T14:42:47;3.88;;;0.90;;
61569;SDS011;47462;59.172;17.196;2022-09-12T14:45:24;3.00;;;0.82;;
61569;SDS011;47462;59.172;17.196;2022-09-12T14:47:54;1.48;;;0.85;;
61569;SDS011;47462;59.172;17.196;2022-09-12T14:50:22;2.15;;;1.00;;
61569;SDS011;47462;59.172;17.196;2022-09-12T14:55:42;4.03;;;0.95;;
61569;SDS011;47462;59.172;17.196;2022-09-12T15:00:58;4.40;;;0.95;;
61569;SDS011;47462;59.172;17.196;2022-09-12T15:05:59;2.42;;;0.90;;
61569;SDS011;47462;59.172;17.196;2022-09-12T15:08:29;2.78;;;1.00;;
61569;SDS011;47462;59.172;17.196;2022-09-12T15:10:56;4.10;;;1.00;;
61569;SDS011;47462;59.172;17.196;2022-09-12T15:13:26;1.73;;;0.98;;
61569;SDS011;47462;59.172;17.196;2022-09-12T15:15:57;2.97;;;0.90;;
61569;SDS011;47462;59.172;17.196;2022-09-12T15:18:24;1.10;;;1.00;;
61569;SDS011;47462;59.172;17.196;2022-09-12T15:20:52;2.35;;;1.10;;
61569;SDS011;47462;59.172;17.196;2022-09-12T15:26:04;3.83;;;1.10;;
61569;SDS011;47462;59.172;17.196;2022-09-12T15:28:31;1.63;;;1.08;;
61569;SDS011;47462;59.172;17.196;2022-09-12T15:30:59;0.88;;;0.77;;
61569;SDS011;47462;59.172;17.196;2022-09-12T15:33:31;1.05;;;0.80;;
61569;SDS011;47462;59.172;17.196;2022-09-12T15:35:56;1.95;;;1.10;;
61569;SDS011;47462;59.172;17.196;2022-09-12T15:38:22;1.52;;;0.90;;
61569;SDS011;47462;59.172;17.196;2022-09-12T15:40:50;1.13;;;0.80;;
61569;SDS011;47462;59.172;17.196;2022-09-12T15:43:17;0.88;;;0.88;;
61569;SDS011;47462;59.172;17.196;2022-09-12T15:45:43;4.20;;;1.23;;
61569;SDS011;47462;59.172;17.196;2022-09-12T15:48:10;5.45;;;1.35;;
61569;SDS011;47462;59.172;17.196;2022-09-12T15:50:37;3.25;;;0.98;;
61569;SDS011;47462;59.172;17.196;2022-09-12T15:53:03;2.42;;;1.02;;
61569;SDS011;47462;59.172;17.196;2022-09-12T15:55:29;1.88;;;1.20;;
61569;SDS011;47462;59.172;17.196;2022-09-12T15:57:56;3.40;;;0.88;;
61569;SDS011;47462;59.172;17.196;2022-09-12T16:00:22;2.55;;;1.27;;
61569;SDS011;47462;59.172;17.196;2022-09-12T16:02:49;2.10;;;1.25;;
61569;SDS011;47462;59.172;17.196;2022-09-12T16:05:20;1.88;;;1.23;;
61569;SDS011;47462;59.172;17.196;2022-09-12T16:07:52;4.22;;;1.20;;
61569;SDS011;47462;59.172;17.196;2022-09-12T16:10:28;1.15;;;0.90;;
61569;SDS011;47462;59.172;17.196;2022-09-12T16:12:54;1.77;;;1.15;;
61569;SDS011;47462;59.172;17.196;2022-09-12T16:17:47;2.35;;;1.38;;
61569;SDS011;47462;59.172;17.196;2022-09-12T16:20:13;2.88;;;1.05;;
61569;SDS011;47462;59.172;17.196;2022-09-12T16:25:04;2.85;;;1.17;;
61569;SDS011;47462;59.172;17.196;2022-09-12T16:27:30;2.55;;;1.20;;
61569;SDS011;47462;59.172;17.196;2022-09-12T16:29:57;1.80;;;1.15;;
61569;SDS011;47462;59.172;17.196;2022-09-12T16:34:47;3.15;;;1.42;;
61569;SDS011;47462;59.172;17.196;2022-09-12T16:37:14;4.47;;;1.30;;
61569;SDS011;47462;59.172;17.196;2022-09-12T16:42:04;5.03;;;1.53;;
61569;SDS011;47462;59.172;17.196;2022-09-12T16:46:55;4.97;;;1.73;;
61569;SDS011;47462;59.172;17.196;2022-09-12T16:51:46;4.03;;;1.38;;
61569;SDS011;47462;59.172;17.196;2022-09-12T16:56:40;4.18;;;1.60;;
61569;SDS011;47462;59.172;17.196;2022-09-12T17:01:33;4.25;;;1.50;;
61569;SDS011;47462;59.172;17.196;2022-09-12T17:03:59;2.22;;;1.30;;
61569;SDS011;47462;59.172;17.196;2022-09-12T17:08:52;1.42;;;1.30;;
61569;SDS011;47462;59.172;17.196;2022-09-12T17:11:20;3.40;;;1.40;;
61569;SDS011;47462;59.172;17.196;2022-09-12T17:13:47;6.40;;;1.42;;
61569;SDS011;47462;59.172;17.196;2022-09-12T17:16:14;3.08;;;1.30;;
61569;SDS011;47462;59.172;17.196;2022-09-12T17:21:06;2.45;;;1.15;;
61569;SDS011;47462;59.172;17.196;2022-09-12T17:23:33;5.32;;;1.70;;
61569;SDS011;47462;59.172;17.196;2022-09-12T17:28:24;4.00;;;1.20;;
61569;SDS011;47462;59.172;17.196;2022-09-12T17:33:19;2.30;;;1.50;;
61569;SDS011;47462;59.172;17.196;2022-09-12T17:38:09;3.17;;;1.35;;
61569;SDS011;47462;59.172;17.196;2022-09-12T17:43:00;2.90;;;1.60;;
61569;SDS011;47462;59.172;17.196;2022-09-12T17:47:51;1.88;;;1.60;;
61569;SDS011;47462;59.172;17.196;2022-09-12T17:50:17;5.93;;;1.70;;
61569;SDS011;47462;59.172;17.196;2022-09-12T17:52:42;2.83;;;1.67;;
61569;SDS011;47462;59.172;17.196;2022-09-12T17:57:34;2.80;;;1.33;;
61569;SDS011;47462;59.172;17.196;2022-09-12T17:59:59;2.55;;;1.67;;
61569;SDS011;47462;59.172;17.196;2022-09-12T18:04:50;2.15;;;1.55;;
61569;SDS011;47462;59.172;17.196;2022-09-12T18:09:45;2.50;;;1.50;;